PWSweather.com
Personal Weather Stations
Station Observations
IMAZOWIE6
WarszawaPL

WarszawaPL

Lat: 52.27957, Lon: 21.05489

Elevation: 100

Station Type: WS1080

http://stacjapogody.waw.pl/

High Low Average
Temperature 57.4°F14.1°C 49.6°F9.8°C 54.2°F12.3°C
Dew Point 27.0°F-2.8°C -167.7°F-110.9°C -32.7°F-35.9°C
Winds Calm Calm Calm Calm Calm NCalm N
Wind Gusts 2.8 mph4.5 kmh -- --
Humidity 34% 10% 24%
Pressure 29.79 in1008.8 mb 29.69 in1005.4 mb -
Precipitation 0.00 in0.0 mm - -
Hour Temp Dew Point Humidity Winds Wind Gusts Pressure Precip Precip Rate Daily Precip Total
12:05 AM 55.0°F12.8°C 27.0°F-2.8°C 34% Calm Calm -- 29.79 in1008.8 mb 0.00 in0.0 mm 0.00 in0.0 mm 0.00 in0.0 mm
12:20 AM 55.0°F12.8°C 24.8°F-4.0°C 31% Calm Calm -- 29.78 in1008.5 mb 0.00 in0.0 mm 0.00 in0.0 mm 0.00 in0.0 mm
12:35 AM 55.0°F12.8°C 24.0°F-4.4°C 30% Calm Calm -- 29.79 in1008.8 mb 0.00 in0.0 mm 0.00 in0.0 mm 0.00 in0.0 mm
12:50 AM 55.0°F12.8°C 23.2°F-4.9°C 29% Calm Calm -- 29.79 in1008.8 mb 0.00 in0.0 mm 0.00 in0.0 mm 0.00 in0.0 mm
01:05 AM 55.0°F12.8°C 22.3°F-5.4°C 28% Calm Calm -- 29.78 in1008.5 mb 0.00 in0.0 mm 0.00 in0.0 mm 0.00 in0.0 mm
01:20 AM 55.0°F12.8°C 22.3°F-5.4°C 28% Calm Calm -- 29.78 in1008.5 mb 0.00 in0.0 mm 0.00 in0.0 mm 0.00 in0.0 mm
01:35 AM 55.0°F12.8°C 22.3°F-5.4°C 28% Calm Calm -- 29.78 in1008.5 mb 0.00 in0.0 mm 0.00 in0.0 mm 0.00 in0.0 mm
01:50 AM 54.9°F12.7°C 22.2°F-5.4°C 28% Calm Calm 0.6 mph1.0 kmh 29.78 in1008.5 mb 0.00 in0.0 mm 0.00 in0.0 mm 0.00 in0.0 mm
02:05 AM 55.0°F12.8°C 22.3°F-5.4°C 28% Calm Calm -- 29.77 in1008.1 mb 0.00 in0.0 mm 0.00 in0.0 mm 0.00 in0.0 mm
02:20 AM 54.9°F12.7°C 21.3°F-5.9°C 27% Calm Calm -- 29.77 in1008.1 mb 0.00 in0.0 mm 0.00 in0.0 mm 0.00 in0.0 mm
02:35 AM 54.9°F12.7°C 21.3°F-5.9°C 27% Calm Calm -- 29.77 in1008.1 mb 0.00 in0.0 mm 0.00 in0.0 mm 0.00 in0.0 mm
02:50 AM 54.9°F12.7°C 21.3°F-5.9°C 27% Calm Calm -- 29.77 in1008.1 mb 0.00 in0.0 mm 0.00 in0.0 mm 0.00 in0.0 mm
03:05 AM 54.7°F12.6°C 21.2°F-6.0°C 27% Calm Calm -- 29.77 in1008.1 mb 0.00 in0.0 mm 0.00 in0.0 mm 0.00 in0.0 mm
03:20 AM 54.9°F12.7°C 21.3°F-5.9°C 27% Calm Calm -- 29.76 in1007.8 mb 0.00 in0.0 mm 0.00 in0.0 mm 0.00 in0.0 mm
03:35 AM 54.9°F12.7°C 21.3°F-5.9°C 27% Calm Calm -- 29.76 in1007.8 mb 0.00 in0.0 mm 0.00 in0.0 mm 0.00 in0.0 mm
03:50 AM 54.9°F12.7°C 21.3°F-5.9°C 27% Calm Calm -- 29.76 in1007.8 mb 0.00 in0.0 mm 0.00 in0.0 mm 0.00 in0.0 mm
04:05 AM 54.9°F12.7°C 21.3°F-5.9°C 27% Calm Calm 0.6 mph1.0 kmh 29.76 in1007.8 mb 0.00 in0.0 mm 0.00 in0.0 mm 0.00 in0.0 mm
04:20 AM 54.7°F12.6°C 21.2°F-6.0°C 27% Calm Calm 0.6 mph1.0 kmh 29.76 in1007.8 mb 0.00 in0.0 mm 0.00 in0.0 mm 0.00 in0.0 mm
04:35 AM 54.9°F12.7°C 21.3°F-5.9°C 27% Calm Calm -- 29.75 in1007.5 mb 0.00 in0.0 mm 0.00 in0.0 mm 0.00 in0.0 mm
04:50 AM 54.7°F12.6°C 20.3°F-6.5°C 26% Calm Calm -- 29.75 in1007.5 mb 0.00 in0.0 mm 0.00 in0.0 mm 0.00 in0.0 mm
05:05 AM 54.7°F12.6°C 21.2°F-6.0°C 27% Calm Calm -- 29.75 in1007.5 mb 0.00 in0.0 mm 0.00 in0.0 mm 0.00 in0.0 mm
05:20 AM 54.9°F12.7°C 20.4°F-6.4°C 26% Calm Calm 0.6 mph1.0 kmh 29.75 in1007.5 mb 0.00 in0.0 mm 0.00 in0.0 mm 0.00 in0.0 mm
05:35 AM 54.5°F12.5°C 20.1°F-6.6°C 26% Calm Calm -- 29.75 in1007.5 mb 0.00 in0.0 mm 0.00 in0.0 mm 0.00 in0.0 mm
05:50 AM 54.5°F12.5°C 20.1°F-6.6°C 26% Calm Calm 0.6 mph1.0 kmh 29.75 in1007.5 mb 0.00 in0.0 mm 0.00 in0.0 mm 0.00 in0.0 mm
06:05 AM 54.5°F12.5°C 20.1°F-6.6°C 26% Calm Calm -- 29.75 in1007.5 mb 0.00 in0.0 mm 0.00 in0.0 mm 0.00 in0.0 mm
06:20 AM 54.5°F12.5°C 20.1°F-6.6°C 26% Calm Calm -- 29.75 in1007.5 mb 0.00 in0.0 mm 0.00 in0.0 mm 0.00 in0.0 mm
06:35 AM 54.7°F12.6°C 21.2°F-6.0°C 27% Calm Calm 0.6 mph1.0 kmh 29.75 in1007.5 mb 0.00 in0.0 mm 0.00 in0.0 mm 0.00 in0.0 mm
06:50 AM 54.7°F12.6°C 22.0°F-5.6°C 28% Calm Calm -- 29.75 in1007.5 mb 0.00 in0.0 mm 0.00 in0.0 mm 0.00 in0.0 mm
07:05 AM 54.7°F12.6°C 22.0°F-5.6°C 28% Calm Calm -- 29.75 in1007.5 mb 0.00 in0.0 mm 0.00 in0.0 mm 0.00 in0.0 mm
07:20 AM 54.7°F12.6°C 21.2°F-6.0°C 27% Calm Calm -- 29.75 in1007.5 mb 0.00 in0.0 mm 0.00 in0.0 mm 0.00 in0.0 mm
07:35 AM 54.9°F12.7°C 21.3°F-5.9°C 27% Calm Calm -- 29.76 in1007.8 mb 0.00 in0.0 mm 0.00 in0.0 mm 0.00 in0.0 mm
07:50 AM 54.5°F12.5°C 21.0°F-6.1°C 27% Calm Calm -- 29.76 in1007.8 mb 0.00 in0.0 mm 0.00 in0.0 mm 0.00 in0.0 mm
08:05 AM 54.7°F12.6°C 21.2°F-6.0°C 27% Calm Calm -- 29.76 in1007.8 mb 0.00 in0.0 mm 0.00 in0.0 mm 0.00 in0.0 mm
08:20 AM 54.7°F12.6°C 21.2°F-6.0°C 27% Calm Calm -- 29.76 in1007.8 mb 0.00 in0.0 mm 0.00 in0.0 mm 0.00 in0.0 mm
08:35 AM 54.7°F12.6°C 21.2°F-6.0°C 27% Calm Calm -- 29.76 in1007.8 mb 0.00 in0.0 mm 0.00 in0.0 mm 0.00 in0.0 mm
08:50 AM 54.7°F12.6°C 21.2°F-6.0°C 27% Calm Calm -- 29.76 in1007.8 mb 0.00 in0.0 mm 0.00 in0.0 mm 0.00 in0.0 mm
09:05 AM 54.9°F12.7°C 21.3°F-5.9°C 27% Calm Calm 0.6 mph1.0 kmh 29.76 in1007.8 mb 0.00 in0.0 mm 0.00 in0.0 mm 0.00 in0.0 mm
09:20 AM 55.0°F12.8°C 21.5°F-5.8°C 27% Calm Calm -- 29.76 in1007.8 mb 0.00 in0.0 mm 0.00 in0.0 mm 0.00 in0.0 mm
09:35 AM 55.2°F12.9°C 20.7°F-6.3°C 26% Calm Calm -- 29.76 in1007.8 mb 0.00 in0.0 mm 0.00 in0.0 mm 0.00 in0.0 mm
09:50 AM 54.9°F12.7°C 18.6°F-7.4°C 24% Calm Calm 0.6 mph1.0 kmh 29.76 in1007.8 mb 0.00 in0.0 mm 0.00 in0.0 mm 0.00 in0.0 mm
10:05 AM 55.2°F12.9°C 18.9°F-7.3°C 24% Calm Calm 0.6 mph1.0 kmh 29.76 in1007.8 mb 0.00 in0.0 mm 0.00 in0.0 mm 0.00 in0.0 mm
10:20 AM 55.4°F13.0°C 15.9°F-8.9°C 21% Calm Calm -- 29.77 in1008.1 mb 0.00 in0.0 mm 0.00 in0.0 mm 0.00 in0.0 mm
10:35 AM 55.6°F13.1°C 15.0°F-9.4°C 20% Calm Calm -- 29.77 in1008.1 mb 0.00 in0.0 mm 0.00 in0.0 mm 0.00 in0.0 mm
10:50 AM 55.4°F13.0°C 12.4°F-10.9°C 18% Calm Calm -- 29.76 in1007.8 mb 0.00 in0.0 mm 0.00 in0.0 mm 0.00 in0.0 mm
11:05 AM 55.8°F13.2°C 10.1°F-12.2°C 16% Calm Calm -- 29.76 in1007.8 mb 0.00 in0.0 mm 0.00 in0.0 mm 0.00 in0.0 mm
11:20 AM 55.9°F13.3°C 4.0°F-15.6°C 12% Calm Calm -- 29.76 in1007.8 mb 0.00 in0.0 mm 0.00 in0.0 mm 0.00 in0.0 mm
11:35 AM 56.1°F13.4°C 0.3°F-17.6°C 10% Calm Calm -- 29.75 in1007.5 mb 0.00 in0.0 mm 0.00 in0.0 mm 0.00 in0.0 mm
11:50 AM 56.1°F13.4°C -167.2°F-110.7°C - Calm Calm -- 29.75 in1007.5 mb 0.00 in0.0 mm 0.00 in0.0 mm 0.00 in0.0 mm
12:05 PM 55.9°F13.3°C -167.2°F-110.7°C - Calm Calm -- 29.75 in1007.5 mb 0.00 in0.0 mm 0.00 in0.0 mm 0.00 in0.0 mm
12:20 PM 56.1°F13.4°C -167.2°F-110.7°C - Calm Calm -- 29.75 in1007.5 mb 0.00 in0.0 mm 0.00 in0.0 mm 0.00 in0.0 mm
12:35 PM 56.5°F13.6°C -167.2°F-110.7°C - Calm Calm -- 29.75 in1007.5 mb 0.00 in0.0 mm 0.00 in0.0 mm 0.00 in0.0 mm
12:50 PM 56.3°F13.5°C -167.2°F-110.7°C - Calm Calm -- 29.75 in1007.5 mb 0.00 in0.0 mm 0.00 in0.0 mm 0.00 in0.0 mm
01:05 PM 56.5°F13.6°C -167.2°F-110.7°C - Calm Calm -- 29.74 in1007.1 mb 0.00 in0.0 mm 0.00 in0.0 mm 0.00 in0.0 mm
01:20 PM 56.8°F13.8°C -167.1°F-110.6°C - Calm Calm -- 29.75 in1007.5 mb 0.00 in0.0 mm 0.00 in0.0 mm 0.00 in0.0 mm
01:35 PM 57.0°F13.9°C -167.1°F-110.6°C - Calm Calm -- 29.74 in1007.1 mb 0.00 in0.0 mm 0.00 in0.0 mm 0.00 in0.0 mm
01:50 PM 57.4°F14.1°C -167.1°F-110.6°C - Calm Calm 0.6 mph1.0 kmh 29.74 in1007.1 mb 0.00 in0.0 mm 0.00 in0.0 mm 0.00 in0.0 mm
02:05 PM 56.8°F13.8°C -167.1°F-110.6°C - Calm Calm -- 29.73 in1006.8 mb 0.00 in0.0 mm 0.00 in0.0 mm 0.00 in0.0 mm
02:20 PM 56.5°F13.6°C -167.2°F-110.7°C - Calm Calm -- 29.73 in1006.8 mb 0.00 in0.0 mm 0.00 in0.0 mm 0.00 in0.0 mm
02:35 PM 56.5°F13.6°C -167.2°F-110.7°C - Calm Calm 2.8 mph4.5 kmh 29.73 in1006.8 mb 0.00 in0.0 mm 0.00 in0.0 mm 0.00 in0.0 mm
02:50 PM 56.7°F13.7°C -167.1°F-110.6°C - Calm Calm -- 29.73 in1006.8 mb 0.00 in0.0 mm 0.00 in0.0 mm 0.00 in0.0 mm
03:05 PM 56.5°F13.6°C -167.2°F-110.7°C - Calm Calm -- 29.73 in1006.8 mb 0.00 in0.0 mm 0.00 in0.0 mm 0.00 in0.0 mm
03:20 PM 55.9°F13.3°C -167.2°F-110.7°C - Calm Calm -- 29.73 in1006.8 mb 0.00 in0.0 mm 0.00 in0.0 mm 0.00 in0.0 mm
03:35 PM 55.4°F13.0°C -167.3°F-110.7°C - Calm Calm 0.6 mph1.0 kmh 29.73 in1006.8 mb 0.00 in0.0 mm 0.00 in0.0 mm 0.00 in0.0 mm
03:50 PM 55.2°F12.9°C -167.3°F-110.7°C - Calm Calm -- 29.72 in1006.4 mb 0.00 in0.0 mm 0.00 in0.0 mm 0.00 in0.0 mm
04:05 PM 54.7°F12.6°C -167.3°F-110.7°C - Calm Calm 0.6 mph1.0 kmh 29.72 in1006.4 mb 0.00 in0.0 mm 0.00 in0.0 mm 0.00 in0.0 mm
04:20 PM 54.0°F12.2°C -167.4°F-110.8°C - Calm Calm -- 29.73 in1006.8 mb 0.00 in0.0 mm 0.00 in0.0 mm 0.00 in0.0 mm
04:35 PM 53.6°F12.0°C -167.4°F-110.8°C - Calm Calm 0.6 mph1.0 kmh 29.73 in1006.8 mb 0.00 in0.0 mm 0.00 in0.0 mm 0.00 in0.0 mm
04:50 PM 53.2°F11.8°C -167.5°F-110.8°C - Calm Calm -- 29.73 in1006.8 mb 0.00 in0.0 mm 0.00 in0.0 mm 0.00 in0.0 mm
05:05 PM 52.9°F11.6°C -167.5°F-110.8°C - Calm Calm -- 29.73 in1006.8 mb 0.00 in0.0 mm 0.00 in0.0 mm 0.00 in0.0 mm
05:20 PM 52.2°F11.2°C -167.6°F-110.9°C - Calm Calm -- 29.73 in1006.8 mb 0.00 in0.0 mm 0.00 in0.0 mm 0.00 in0.0 mm
05:35 PM 51.8°F11.0°C -167.6°F-110.9°C - Calm Calm -- 29.73 in1006.8 mb 0.00 in0.0 mm 0.00 in0.0 mm 0.00 in0.0 mm
05:50 PM 51.3°F10.7°C -167.7°F-110.9°C - Calm Calm -- 29.72 in1006.4 mb 0.00 in0.0 mm 0.00 in0.0 mm 0.00 in0.0 mm
06:05 PM 51.1°F10.6°C -167.7°F-110.9°C - Calm Calm -- 29.72 in1006.4 mb 0.00 in0.0 mm 0.00 in0.0 mm 0.00 in0.0 mm
06:20 PM 50.9°F10.5°C -1.8°F-18.8°C 11% Calm Calm -- 29.72 in1006.4 mb 0.00 in0.0 mm 0.00 in0.0 mm 0.00 in0.0 mm
06:35 PM 50.7°F10.4°C -0.1°F-17.8°C 12% Calm Calm -- 29.71 in1006.1 mb 0.00 in0.0 mm 0.00 in0.0 mm 0.00 in0.0 mm
06:50 PM 50.4°F10.2°C 1.3°F-17.1°C 13% Calm Calm -- 29.72 in1006.4 mb 0.00 in0.0 mm 0.00 in0.0 mm 0.00 in0.0 mm
07:05 PM 50.0°F10.0°C 2.5°F-16.4°C 14% Calm Calm -- 29.71 in1006.1 mb 0.00 in0.0 mm 0.00 in0.0 mm 0.00 in0.0 mm
07:20 PM 49.8°F9.9°C 2.4°F-16.4°C 14% Calm Calm -- 29.71 in1006.1 mb 0.00 in0.0 mm 0.00 in0.0 mm 0.00 in0.0 mm
07:35 PM 49.6°F9.8°C 3.7°F-15.7°C 15% Calm Calm -- 29.71 in1006.1 mb 0.00 in0.0 mm 0.00 in0.0 mm 0.00 in0.0 mm
07:50 PM 50.0°F10.0°C 6.7°F-14.1°C 17% Calm Calm 0.6 mph1.0 kmh 29.71 in1006.1 mb 0.00 in0.0 mm 0.00 in0.0 mm 0.00 in0.0 mm
08:05 PM 49.8°F9.9°C 7.8°F-13.4°C 18% Calm Calm 0.6 mph1.0 kmh 29.71 in1006.1 mb 0.00 in0.0 mm 0.00 in0.0 mm 0.00 in0.0 mm
08:20 PM 50.5°F10.3°C 10.8°F-11.8°C 20% Calm Calm -- 29.71 in1006.1 mb 0.00 in0.0 mm 0.00 in0.0 mm 0.00 in0.0 mm
08:35 PM 51.4°F10.8°C 14.7°F-9.6°C 23% Calm Calm -- 29.70 in1005.8 mb 0.00 in0.0 mm 0.00 in0.0 mm 0.00 in0.0 mm
08:50 PM 52.2°F11.2°C 18.1°F-7.7°C 26% Calm Calm -- 29.70 in1005.8 mb 0.00 in0.0 mm 0.00 in0.0 mm 0.00 in0.0 mm
09:05 PM 52.3°F11.3°C 19.1°F-7.2°C 27% Calm Calm 0.6 mph1.0 kmh 29.70 in1005.8 mb 0.00 in0.0 mm 0.00 in0.0 mm 0.00 in0.0 mm
09:20 PM 52.2°F11.2°C 19.8°F-6.8°C 28% Calm Calm 0.6 mph1.0 kmh 29.70 in1005.8 mb 0.00 in0.0 mm 0.00 in0.0 mm 0.00 in0.0 mm
09:35 PM 52.5°F11.4°C 20.1°F-6.6°C 28% Calm Calm -- 29.70 in1005.8 mb 0.00 in0.0 mm 0.00 in0.0 mm 0.00 in0.0 mm
09:50 PM 52.9°F11.6°C 20.5°F-6.4°C 28% Calm Calm -- 29.70 in1005.8 mb 0.00 in0.0 mm 0.00 in0.0 mm 0.00 in0.0 mm
10:05 PM 52.9°F11.6°C 19.6°F-6.9°C 27% Calm Calm 0.6 mph1.0 kmh 29.70 in1005.8 mb 0.00 in0.0 mm 0.00 in0.0 mm 0.00 in0.0 mm
10:20 PM 52.5°F11.4°C 18.4°F-7.6°C 26% Calm Calm 0.6 mph1.0 kmh 29.70 in1005.8 mb 0.00 in0.0 mm 0.00 in0.0 mm 0.00 in0.0 mm
10:35 PM 52.2°F11.2°C 17.2°F-8.2°C 25% Calm Calm 0.6 mph1.0 kmh 29.70 in1005.8 mb 0.00 in0.0 mm 0.00 in0.0 mm 0.00 in0.0 mm
10:50 PM 52.3°F11.3°C 16.4°F-8.7°C 24% Calm Calm 0.6 mph1.0 kmh 29.69 in1005.4 mb 0.00 in0.0 mm 0.00 in0.0 mm 0.00 in0.0 mm
11:05 PM 52.2°F11.2°C 15.3°F-9.3°C 23% Calm Calm 0.6 mph1.0 kmh 29.69 in1005.4 mb 0.00 in0.0 mm 0.00 in0.0 mm 0.00 in0.0 mm
11:20 PM 51.8°F11.0°C 14.0°F-10.0°C 22% Calm Calm -- 29.69 in1005.4 mb 0.00 in0.0 mm 0.00 in0.0 mm 0.00 in0.0 mm
11:35 PM 52.5°F11.4°C 14.6°F-9.7°C 22% Calm Calm -- 29.70 in1005.8 mb 0.00 in0.0 mm 0.00 in0.0 mm 0.00 in0.0 mm
11:50 PM 52.9°F11.6°C 13.8°F-10.1°C 21% Calm Calm -- 29.70 in1005.8 mb 0.00 in0.0 mm 0.00 in0.0 mm 0.00 in0.0 mm